sensor_id;sensor_type;location;lat;lon;timestamp;pressure;altitude;pressure_sealevel;temperature;humidity
8253;BME280;61313;48.396;10.008;2023-11-21T00:00:13;95658.59;;;9.14;69.44
8253;BME280;61313;48.396;10.008;2023-11-21T00:02:39;95662.06;;;9.15;69.18
8253;BME280;61313;48.396;10.008;2023-11-21T00:05:08;95656.84;;;9.15;69.18
8253;BME280;61313;48.396;10.008;2023-11-21T00:07:37;95655.22;;;9.12;69.15
8253;BME280;61313;48.396;10.008;2023-11-21T00:10:03;95659.22;;;9.19;69.24
8253;BME280;61313;48.396;10.008;2023-11-21T00:12:30;95666.97;;;9.21;69.09
8253;BME280;61313;48.396;10.008;2023-11-21T00:14:56;95664.38;;;9.21;68.90
8253;BME280;61313;48.396;10.008;2023-11-21T00:17:22;95660.91;;;9.20;69.14
8253;BME280;61313;48.396;10.008;2023-11-21T00:19:47;95661.50;;;9.25;69.26
8253;BME280;61313;48.396;10.008;2023-11-21T00:22:12;95660.69;;;9.25;68.89
8253;BME280;61313;48.396;10.008;2023-11-21T00:24:38;95661.19;;;9.14;69.61
8253;BME280;61313;48.396;10.008;2023-11-21T00:27:03;95662.91;;;9.15;69.91
8253;BME280;61313;48.396;10.008;2023-11-21T00:29:29;95650.13;;;9.09;70.42
8253;BME280;61313;48.396;10.008;2023-11-21T00:31:54;95643.75;;;9.15;70.31
8253;BME280;61313;48.396;10.008;2023-11-21T00:34:19;95652.44;;;9.15;70.20
8253;BME280;61313;48.396;10.008;2023-11-21T00:36:45;95651.84;;;9.10;70.31
8253;BME280;61313;48.396;10.008;2023-11-21T00:39:10;95641.97;;;9.15;70.02
8253;BME280;61313;48.396;10.008;2023-11-21T00:41:37;95646.59;;;9.10;70.16
8253;BME280;61313;48.396;10.008;2023-11-21T00:44:02;95635.19;;;9.11;70.49
8253;BME280;61313;48.396;10.008;2023-11-21T00:46:28;95644.81;;;9.10;70.80
8253;BME280;61313;48.396;10.008;2023-11-21T00:48:54;95642.50;;;9.04;71.10
8253;BME280;61313;48.396;10.008;2023-11-21T00:51:21;95636.91;;;9.12;71.19
8253;BME280;61313;48.396;10.008;2023-11-21T00:53:47;95639.09;;;9.02;71.49
8253;BME280;61313;48.396;10.008;2023-11-21T00:56:13;95644.50;;;8.99;71.43
8253;BME280;61313;48.396;10.008;2023-11-21T00:58:40;95640.66;;;9.06;71.47
8253;BME280;61313;48.396;10.008;2023-11-21T01:01:09;95655.22;;;9.12;71.35
8253;BME280;61313;48.396;10.008;2023-11-21T01:03:34;95648.59;;;9.05;71.48
8253;BME280;61313;48.396;10.008;2023-11-21T01:05:59;95650.66;;;8.98;71.85
8253;BME280;61313;48.396;10.008;2023-11-21T01:08:25;95653.41;;;8.95;71.86
8253;BME280;61313;48.396;10.008;2023-11-21T01:10:50;95649.84;;;8.98;72.03
8253;BME280;61313;48.396;10.008;2023-11-21T01:13:16;95645.13;;;9.04;71.82
8253;BME280;61313;48.396;10.008;2023-11-21T01:15:42;95645.88;;;9.06;71.83
8253;BME280;61313;48.396;10.008;2023-11-21T01:18:07;95644.22;;;9.05;71.95
8253;BME280;61313;48.396;10.008;2023-11-21T01:20:34;95632.91;;;9.05;71.97
8253;BME280;61313;48.396;10.008;2023-11-21T01:22:59;95640.81;;;9.03;71.68
8253;BME280;61313;48.396;10.008;2023-11-21T01:25:25;95643.38;;;9.05;71.94
8253;BME280;61313;48.396;10.008;2023-11-21T01:27:51;95627.50;;;9.08;71.68
8253;BME280;61313;48.396;10.008;2023-11-21T01:30:17;95629.34;;;9.06;72.13
8253;BME280;61313;48.396;10.008;2023-11-21T01:32:42;95638.97;;;9.05;72.00
8253;BME280;61313;48.396;10.008;2023-11-21T01:35:09;95625.88;;;9.05;71.88
8253;BME280;61313;48.396;10.008;2023-11-21T01:37:35;95633.75;;;9.05;71.71
8253;BME280;61313;48.396;10.008;2023-11-21T01:40:00;95637.13;;;9.07;71.62
8253;BME280;61313;48.396;10.008;2023-11-21T01:42:26;95622.50;;;9.03;72.20
8253;BME280;61313;48.396;10.008;2023-11-21T01:44:52;95635.41;;;9.06;72.53
8253;BME280;61313;48.396;10.008;2023-11-21T01:47:19;95635.97;;;9.13;71.73
8253;BME280;61313;48.396;10.008;2023-11-21T01:49:46;95643.44;;;9.03;72.47
8253;BME280;61313;48.396;10.008;2023-11-21T01:52:12;95633.41;;;8.94;72.79
8253;BME280;61313;48.396;10.008;2023-11-21T01:54:38;95624.72;;;8.94;73.31
8253;BME280;61313;48.396;10.008;2023-11-21T01:57:05;95627.97;;;8.99;72.84
8253;BME280;61313;48.396;10.008;2023-11-21T01:59:36;95629.56;;;9.01;72.44
8253;BME280;61313;48.396;10.008;2023-11-21T02:02:05;95621.72;;;9.01;72.06
8253;BME280;61313;48.396;10.008;2023-11-21T02:04:35;95624.50;;;8.98;72.47
8253;BME280;61313;48.396;10.008;2023-11-21T02:07:02;95632.47;;;8.95;72.99
8253;BME280;61313;48.396;10.008;2023-11-21T02:09:30;95625.34;;;8.99;72.37
8253;BME280;61313;48.396;10.008;2023-11-21T02:11:56;95629.56;;;9.01;72.38
8253;BME280;61313;48.396;10.008;2023-11-21T02:14:24;95633.25;;;8.97;71.95
8253;BME280;61313;48.396;10.008;2023-11-21T02:16:51;95630.03;;;8.92;72.81
8253;BME280;61313;48.396;10.008;2023-11-21T02:19:21;95633.59;;;8.91;72.34
8253;BME280;61313;48.396;10.008;2023-11-21T02:21:51;95634.25;;;8.95;72.21
8253;BME280;61313;48.396;10.008;2023-11-21T02:24:19;95638.25;;;8.84;72.72
8253;BME280;61313;48.396;10.008;2023-11-21T02:26:45;95640.88;;;8.84;72.87
8253;BME280;61313;48.396;10.008;2023-11-21T02:29:11;95637.25;;;8.87;73.30
8253;BME280;61313;48.396;10.008;2023-11-21T02:31:38;95631.97;;;8.88;72.70
8253;BME280;61313;48.396;10.008;2023-11-21T02:34:15;95622.34;;;8.89;72.87
8253;BME280;61313;48.396;10.008;2023-11-21T02:36:41;95630.19;;;8.89;73.02
8253;BME280;61313;48.396;10.008;2023-11-21T02:39:08;95626.97;;;8.84;73.47
8253;BME280;61313;48.396;10.008;2023-11-21T02:41:33;95619.94;;;8.84;73.22
8253;BME280;61313;48.396;10.008;2023-11-21T02:44:00;95614.50;;;8.89;72.65
8253;BME280;61313;48.396;10.008;2023-11-21T02:46:25;95613.72;;;8.87;73.38
8253;BME280;61313;48.396;10.008;2023-11-21T02:48:51;95609.66;;;8.81;73.06
8253;BME280;61313;48.396;10.008;2023-11-21T02:51:19;95606.03;;;8.84;73.57
8253;BME280;61313;48.396;10.008;2023-11-21T02:53:44;95608.78;;;8.81;73.68
8253;BME280;61313;48.396;10.008;2023-11-21T02:56:11;95609.41;;;8.86;73.26
8253;BME280;61313;48.396;10.008;2023-11-21T02:58:37;95609.31;;;8.70;72.93
8253;BME280;61313;48.396;10.008;2023-11-21T03:01:03;95608.38;;;8.71;73.47
8253;BME280;61313;48.396;10.008;2023-11-21T03:03:32;95611.72;;;8.75;72.91
8253;BME280;61313;48.396;10.008;2023-11-21T03:05:57;95614.63;;;8.68;72.76
8253;BME280;61313;48.396;10.008;2023-11-21T03:08:23;95611.59;;;8.59;73.35
8253;BME280;61313;48.396;10.008;2023-11-21T03:10:48;95611.28;;;8.47;74.00
8253;BME280;61313;48.396;10.008;2023-11-21T03:13:13;95608.94;;;8.60;73.92
8253;BME280;61313;48.396;10.008;2023-11-21T03:15:39;95611.69;;;8.57;73.88
8253;BME280;61313;48.396;10.008;2023-11-21T03:18:04;95606.16;;;8.27;75.38
8253;BME280;61313;48.396;10.008;2023-11-21T03:20:30;95620.34;;;8.40;74.36
8253;BME280;61313;48.396;10.008;2023-11-21T03:22:55;95615.44;;;8.52;73.90
8253;BME280;61313;48.396;10.008;2023-11-21T03:25:20;95614.94;;;8.62;73.87
8253;BME280;61313;48.396;10.008;2023-11-21T03:27:49;95615.00;;;8.61;74.24
8253;BME280;61313;48.396;10.008;2023-11-21T03:30:14;95612.22;;;8.46;74.12
8253;BME280;61313;48.396;10.008;2023-11-21T03:32:40;95609.75;;;8.43;74.23
8253;BME280;61313;48.396;10.008;2023-11-21T03:35:05;95615.22;;;8.56;74.74
8253;BME280;61313;48.396;10.008;2023-11-21T03:37:31;95618.50;;;8.23;75.54
8253;BME280;61313;48.396;10.008;2023-11-21T03:39:56;95612.78;;;8.34;75.80
8253;BME280;61313;48.396;10.008;2023-11-21T03:42:22;95615.38;;;8.53;74.99
8253;BME280;61313;48.396;10.008;2023-11-21T03:44:47;95618.63;;;8.58;74.70
8253;BME280;61313;48.396;10.008;2023-11-21T03:47:12;95618.84;;;8.35;75.50
8253;BME280;61313;48.396;10.008;2023-11-21T03:49:38;95614.38;;;8.56;75.70
8253;BME280;61313;48.396;10.008;2023-11-21T03:52:04;95622.63;;;8.65;75.19
8253;BME280;61313;48.396;10.008;2023-11-21T03:54:30;95620.78;;;8.67;75.16
8253;BME280;61313;48.396;10.008;2023-11-21T03:56:55;95616.56;;;8.65;75.05
8253;BME280;61313;48.396;10.008;2023-11-21T03:59:21;95622.31;;;8.72;74.95
8253;BME280;61313;48.396;10.008;2023-11-21T04:01:49;95617.16;;;8.70;74.36
8253;BME280;61313;48.396;10.008;2023-11-21T04:04:15;95614.34;;;8.75;74.66
8253;BME280;61313;48.396;10.008;2023-11-21T04:06:41;95622.63;;;8.83;74.56
8253;BME280;61313;48.396;10.008;2023-11-21T04:09:06;95615.56;;;8.85;74.39
8253;BME280;61313;48.396;10.008;2023-11-21T04:11:31;95619.41;;;8.78;74.31
8253;BME280;61313;48.396;10.008;2023-11-21T04:13:57;95624.41;;;8.82;74.29
8253;BME280;61313;48.396;10.008;2023-11-21T04:16:22;95627.47;;;8.73;74.48
8253;BME280;61313;48.396;10.008;2023-11-21T04:18:47;95628.09;;;8.78;74.43
8253;BME280;61313;48.396;10.008;2023-11-21T04:21:13;95630.56;;;8.81;74.28
8253;BME280;61313;48.396;10.008;2023-11-21T04:23:38;95629.03;;;8.77;74.77
8253;BME280;61313;48.396;10.008;2023-11-21T04:26:05;95634.47;;;8.73;74.86
8253;BME280;61313;48.396;10.008;2023-11-21T04:28:30;95633.94;;;8.83;74.67
8253;BME280;61313;48.396;10.008;2023-11-21T04:30:56;95634.81;;;8.84;74.60
8253;BME280;61313;48.396;10.008;2023-11-21T04:33:21;95636.09;;;8.93;74.31
8253;BME280;61313;48.396;10.008;2023-11-21T04:35:47;95630.19;;;8.89;74.51
8253;BME280;61313;48.396;10.008;2023-11-21T04:38:13;95631.09;;;8.88;74.26
8253;BME280;61313;48.396;10.008;2023-11-21T04:40:39;95630.25;;;8.87;74.62
8253;BME280;61313;48.396;10.008;2023-11-21T04:43:04;95631.19;;;8.86;74.39
8253;BME280;61313;48.396;10.008;2023-11-21T04:45:30;95636.03;;;8.94;74.01
8253;BME280;61313;48.396;10.008;2023-11-21T04:47:55;95635.59;;;8.86;74.48
8253;BME280;61313;48.396;10.008;2023-11-21T04:50:21;95634.34;;;8.93;73.91
8253;BME280;61313;48.396;10.008;2023-11-21T04:52:46;95638.88;;;8.89;74.29
8253;BME280;61313;48.396;10.008;2023-11-21T04:55:12;95642.44;;;8.88;74.31
8253;BME280;61313;48.396;10.008;2023-11-21T04:57:37;95637.50;;;8.82;74.30
8253;BME280;61313;48.396;10.008;2023-11-21T05:00:03;95642.66;;;8.84;74.21
8253;BME280;61313;48.396;10.008;2023-11-21T05:02:33;95646.34;;;8.80;74.89
8253;BME280;61313;48.396;10.008;2023-11-21T05:05:03;95644.72;;;8.77;74.96
8253;BME280;61313;48.396;10.008;2023-11-21T05:07:31;95649.88;;;8.79;74.50
8253;BME280;61313;48.396;10.008;2023-11-21T05:09:57;95645.22;;;8.49;76.46
8253;BME280;61313;48.396;10.008;2023-11-21T05:12:24;95646.97;;;8.48;77.05
8253;BME280;61313;48.396;10.008;2023-11-21T05:14:50;95644.44;;;8.64;75.78
8253;BME280;61313;48.396;10.008;2023-11-21T05:17:15;95652.41;;;8.06;77.56
8253;BME280;61313;48.396;10.008;2023-11-21T05:19:41;95643.28;;;8.53;76.79
8253;BME280;61313;48.396;10.008;2023-11-21T05:22:06;95646.59;;;8.37;77.14
8253;BME280;61313;48.396;10.008;2023-11-21T05:24:33;95645.63;;;8.40;76.29
8253;BME280;61313;48.396;10.008;2023-11-21T05:26:58;95649.78;;;8.63;76.02
8253;BME280;61313;48.396;10.008;2023-11-21T05:29:25;95655.91;;;8.62;76.16
8253;BME280;61313;48.396;10.008;2023-11-21T05:31:51;95656.97;;;8.77;75.44
8253;BME280;61313;48.396;10.008;2023-11-21T05:34:16;95654.72;;;8.50;76.37
8253;BME280;61313;48.396;10.008;2023-11-21T05:36:43;95660.84;;;8.51;75.97
8253;BME280;61313;48.396;10.008;2023-11-21T05:39:11;95664.28;;;8.51;76.38
8253;BME280;61313;48.396;10.008;2023-11-21T05:41:36;95664.53;;;8.64;75.94
8253;BME280;61313;48.396;10.008;2023-11-21T05:44:02;95663.72;;;8.44;76.65
8253;BME280;61313;48.396;10.008;2023-11-21T05:46:27;95662.63;;;8.67;75.40
8253;BME280;61313;48.396;10.008;2023-11-21T05:48:52;95660.63;;;8.73;75.48
8253;BME280;61313;48.396;10.008;2023-11-21T05:51:18;95661.75;;;8.86;74.83
8253;BME280;61313;48.396;10.008;2023-11-21T05:53:44;95661.88;;;8.83;75.08
8253;BME280;61313;48.396;10.008;2023-11-21T05:56:09;95663.25;;;8.73;75.09
8253;BME280;61313;48.396;10.008;2023-11-21T05:58:34;95670.47;;;8.67;75.43
8253;BME280;61313;48.396;10.008;2023-11-21T06:01:00;95670.31;;;8.71;75.31
8253;BME280;61313;48.396;10.008;2023-11-21T06:03:25;95671.09;;;8.73;75.02
8253;BME280;61313;48.396;10.008;2023-11-21T06:05:51;95672.47;;;8.62;75.72
8253;BME280;61313;48.396;10.008;2023-11-21T06:08:16;95672.50;;;8.80;74.91
8253;BME280;61313;48.396;10.008;2023-11-21T06:10:42;95676.56;;;8.85;74.62
8253;BME280;61313;48.396;10.008;2023-11-21T06:13:09;95672.00;;;8.90;74.34
8253;BME280;61313;48.396;10.008;2023-11-21T06:15:35;95683.97;;;8.77;75.01
8253;BME280;61313;48.396;10.008;2023-11-21T06:18:01;95684.19;;;8.73;75.40
8253;BME280;61313;48.396;10.008;2023-11-21T06:20:26;95677.94;;;8.75;75.28
8253;BME280;61313;48.396;10.008;2023-11-21T06:22:52;95680.19;;;8.83;74.61
8253;BME280;61313;48.396;10.008;2023-11-21T06:25:18;95683.75;;;8.82;75.28
8253;BME280;61313;48.396;10.008;2023-11-21T06:27:45;95690.66;;;8.83;75.51
8253;BME280;61313;48.396;10.008;2023-11-21T06:30:11;95690.09;;;8.76;75.35
8253;BME280;61313;48.396;10.008;2023-11-21T06:32:38;95698.66;;;8.80;75.22
8253;BME280;61313;48.396;10.008;2023-11-21T06:35:05;95699.66;;;8.77;75.53
8253;BME280;61313;48.396;10.008;2023-11-21T06:37:32;95694.50;;;8.76;75.39
8253;BME280;61313;48.396;10.008;2023-11-21T06:39:58;95694.97;;;8.84;74.97
8253;BME280;61313;48.396;10.008;2023-11-21T06:42:25;95691.66;;;8.80;75.23
8253;BME280;61313;48.396;10.008;2023-11-21T06:44:51;95693.22;;;8.84;74.59
8253;BME280;61313;48.396;10.008;2023-11-21T06:47:22;95694.81;;;8.87;74.83
8253;BME280;61313;48.396;10.008;2023-11-21T06:49:50;95695.03;;;8.82;74.88
8253;BME280;61313;48.396;10.008;2023-11-21T06:52:16;95697.66;;;8.82;74.92
8253;BME280;61313;48.396;10.008;2023-11-21T06:54:42;95696.19;;;8.77;75.22
8253;BME280;61313;48.396;10.008;2023-11-21T06:57:07;95706.78;;;8.74;75.77
8253;BME280;61313;48.396;10.008;2023-11-21T06:59:32;95709.06;;;8.81;75.27
8253;BME280;61313;48.396;10.008;2023-11-21T07:01:58;95705.03;;;8.74;75.35
8253;BME280;61313;48.396;10.008;2023-11-21T07:04:24;95717.25;;;8.74;75.06
8253;BME280;61313;48.396;10.008;2023-11-21T07:06:53;95718.94;;;8.94;75.12
8253;BME280;61313;48.396;10.008;2023-11-21T07:09:18;95725.28;;;8.88;75.20
8253;BME280;61313;48.396;10.008;2023-11-21T07:11:47;95721.59;;;8.92;74.43
8253;BME280;61313;48.396;10.008;2023-11-21T07:14:14;95724.00;;;8.97;74.65
8253;BME280;61313;48.396;10.008;2023-11-21T07:16:39;95732.91;;;8.93;74.97
8253;BME280;61313;48.396;10.008;2023-11-21T07:19:05;95736.03;;;9.01;73.83
8253;BME280;61313;48.396;10.008;2023-11-21T07:21:36;95737.31;;;8.92;74.63
8253;BME280;61313;48.396;10.008;2023-11-21T07:24:03;95741.25;;;9.01;73.91
8253;BME280;61313;48.396;10.008;2023-11-21T07:26:29;95744.44;;;9.07;73.94
8253;BME280;61313;48.396;10.008;2023-11-21T07:28:54;95753.97;;;9.08;73.72
8253;BME280;61313;48.396;10.008;2023-11-21T07:31:21;95748.53;;;9.13;73.06
8253;BME280;61313;48.396;10.008;2023-11-21T07:33:47;95750.97;;;9.16;72.69
8253;BME280;61313;48.396;10.008;2023-11-21T07:36:13;95747.91;;;9.08;73.15
8253;BME280;61313;48.396;10.008;2023-11-21T07:38:39;95751.50;;;9.05;73.52
8253;BME280;61313;48.396;10.008;2023-11-21T07:41:05;95754.59;;;9.14;73.29
8253;BME280;61313;48.396;10.008;2023-11-21T07:43:33;95753.53;;;9.18;73.03
8253;BME280;61313;48.396;10.008;2023-11-21T07:46:04;95759.91;;;9.12;73.17
8253;BME280;61313;48.396;10.008;2023-11-21T07:48:30;95751.06;;;9.15;73.42
8253;BME280;61313;48.396;10.008;2023-11-21T07:50:56;95759.31;;;9.24;72.70
8253;BME280;61313;48.396;10.008;2023-11-21T07:53:22;95752.53;;;9.20;73.39
8253;BME280;61313;48.396;10.008;2023-11-21T07:55:47;95758.00;;;9.16;73.19
8253;BME280;61313;48.396;10.008;2023-11-21T07:58:12;95762.22;;;9.18;73.05
8253;BME280;61313;48.396;10.008;2023-11-21T08:00:38;95760.16;;;9.25;72.37
8253;BME280;61313;48.396;10.008;2023-11-21T08:03:05;95766.56;;;9.19;72.96
8253;BME280;61313;48.396;10.008;2023-11-21T08:05:31;95755.09;;;9.22;72.97
8253;BME280;61313;48.396;10.008;2023-11-21T08:07:57;95768.56;;;9.31;72.49
8253;BME280;61313;48.396;10.008;2023-11-21T08:10:22;95765.72;;;9.36;72.62
8253;BME280;61313;48.396;10.008;2023-11-21T08:12:47;95769.97;;;9.39;72.55
8253;BME280;61313;48.396;10.008;2023-11-21T08:15:14;95767.28;;;9.40;72.03
8253;BME280;61313;48.396;10.008;2023-11-21T08:17:39;95778.22;;;9.48;72.09
8253;BME280;61313;48.396;10.008;2023-11-21T08:20:05;95770.66;;;9.60;71.92
8253;BME280;61313;48.396;10.008;2023-11-21T08:22:31;95773.59;;;9.71;71.42
8253;BME280;61313;48.396;10.008;2023-11-21T08:24:57;95763.19;;;9.69;71.62
8253;BME280;61313;48.396;10.008;2023-11-21T08:27:23;95774.97;;;9.61;71.58
8253;BME280;61313;48.396;10.008;2023-11-21T08:29:48;95786.06;;;9.66;71.65
8253;BME280;61313;48.396;10.008;2023-11-21T08:32:13;95773.19;;;9.61;71.49
8253;BME280;61313;48.396;10.008;2023-11-21T08:34:40;95781.38;;;9.90;70.80
8253;BME280;61313;48.396;10.008;2023-11-21T08:37:08;95775.63;;;11.91;63.67
8253;BME280;61313;48.396;10.008;2023-11-21T08:39:33;95777.00;;;11.66;63.33
8253;BME280;61313;48.396;10.008;2023-11-21T08:41:59;95774.84;;;11.43;65.06
8253;BME280;61313;48.396;10.008;2023-11-21T08:44:24;95783.03;;;11.22;65.20
8253;BME280;61313;48.396;10.008;2023-11-21T08:46:50;95779.31;;;10.95;65.96
8253;BME280;61313;48.396;10.008;2023-11-21T08:49:15;95781.31;;;10.58;67.50
8253;BME280;61313;48.396;10.008;2023-11-21T08:51:44;95776.38;;;10.36;68.35
8253;BME280;61313;48.396;10.008;2023-11-21T08:54:09;95780.03;;;10.16;68.36
8253;BME280;61313;48.396;10.008;2023-11-21T08:56:35;95791.34;;;10.16;68.93
8253;BME280;61313;48.396;10.008;2023-11-21T08:59:00;95795.59;;;10.19;69.08
8253;BME280;61313;48.396;10.008;2023-11-21T09:01:31;95792.84;;;10.05;69.39
8253;BME280;61313;48.396;10.008;2023-11-21T09:03:57;95794.75;;;10.01;70.15
8253;BME280;61313;48.396;10.008;2023-11-21T09:06:23;95795.63;;;10.02;70.28
8253;BME280;61313;48.396;10.008;2023-11-21T09:08:48;95798.38;;;9.99;69.94
8253;BME280;61313;48.396;10.008;2023-11-21T09:11:13;95800.44;;;10.27;69.17
8253;BME280;61313;48.396;10.008;2023-11-21T09:13:39;95797.56;;;10.49;68.83
8253;BME280;61313;48.396;10.008;2023-11-21T09:16:04;95796.53;;;10.85;66.50
8253;BME280;61313;48.396;10.008;2023-11-21T09:18:31;95791.78;;;10.75;67.31
8253;BME280;61313;48.396;10.008;2023-11-21T09:20:56;95799.13;;;10.69;67.02
8253;BME280;61313;48.396;10.008;2023-11-21T09:23:21;95800.34;;;10.46;68.19
8253;BME280;61313;48.396;10.008;2023-11-21T09:25:47;95797.47;;;10.50;68.07
8253;BME280;61313;48.396;10.008;2023-11-21T09:28:15;95797.59;;;11.28;65.97
8253;BME280;61313;48.396;10.008;2023-11-21T09:30:41;95799.25;;;12.50;61.90
8253;BME280;61313;48.396;10.008;2023-11-21T09:33:06;95796.44;;;13.23;59.15
8253;BME280;61313;48.396;10.008;2023-11-21T09:35:32;95796.81;;;13.17;58.52
8253;BME280;61313;48.396;10.008;2023-11-21T09:37:57;95793.34;;;13.17;58.42
8253;BME280;61313;48.396;10.008;2023-11-21T09:40:23;95801.75;;;13.09;59.15
8253;BME280;61313;48.396;10.008;2023-11-21T09:42:55;95797.56;;;13.33;58.47
8253;BME280;61313;48.396;10.008;2023-11-21T09:45:28;95807.06;;;13.22;58.14
8253;BME280;61313;48.396;10.008;2023-11-21T09:47:55;95811.00;;;12.87;59.39
8253;BME280;61313;48.396;10.008;2023-11-21T09:50:22;95809.47;;;12.98;59.11
8253;BME280;61313;48.396;10.008;2023-11-21T09:53:19;95806.31;;;12.64;59.94
8253;BME280;61313;48.396;10.008;2023-11-21T09:55:51;95805.28;;;12.52;59.79
8253;BME280;61313;48.396;10.008;2023-11-21T09:58:18;95806.28;;;12.35;60.88
8253;BME280;61313;48.396;10.008;2023-11-21T10:00:48;95805.69;;;12.16;60.92
8253;BME280;61313;48.396;10.008;2023-11-21T10:03:14;95808.88;;;12.06;62.26
8253;BME280;61313;48.396;10.008;2023-11-21T10:05:42;95804.91;;;11.99;62.43
8253;BME280;61313;48.396;10.008;2023-11-21T10:08:10;95807.81;;;11.95;62.14
8253;BME280;61313;48.396;10.008;2023-11-21T10:10:38;95808.50;;;11.98;62.85
8253;BME280;61313;48.396;10.008;2023-11-21T10:13:06;95810.75;;;12.04;62.28
8253;BME280;61313;48.396;10.008;2023-11-21T10:15:36;95802.94;;;12.33;62.29
8253;BME280;61313;48.396;10.008;2023-11-21T10:18:02;95803.84;;;12.32;61.51
8253;BME280;61313;48.396;10.008;2023-11-21T10:20:29;95800.75;;;12.40;60.84
8253;BME280;61313;48.396;10.008;2023-11-21T10:22:55;95804.25;;;12.40;60.44
8253;BME280;61313;48.396;10.008;2023-11-21T10:25:22;95789.78;;;13.03;59.01
8253;BME280;61313;48.396;10.008;2023-11-21T10:27:48;95792.84;;;14.44;73.23
8253;BME280;61313;48.396;10.008;2023-11-21T10:30:17;95777.03;;;15.43;60.70
8253;BME280;61313;48.396;10.008;2023-11-21T10:32:43;95779.66;;;14.70;54.41
8253;BME280;61313;48.396;10.008;2023-11-21T10:35:09;95781.56;;;14.55;54.98
8253;BME280;61313;48.396;10.008;2023-11-21T10:37:38;95786.00;;;14.54;54.51
8253;BME280;61313;48.396;10.008;2023-11-21T10:40:11;95783.34;;;14.42;54.70
8253;BME280;61313;48.396;10.008;2023-11-21T10:42:38;95779.75;;;14.43;54.33
8253;BME280;61313;48.396;10.008;2023-11-21T10:45:04;95777.16;;;14.55;54.79
8253;BME280;61313;48.396;10.008;2023-11-21T10:47:38;95773.00;;;14.77;53.62
8253;BME280;61313;48.396;10.008;2023-11-21T10:50:04;95768.50;;;14.90;53.26
8253;BME280;61313;48.396;10.008;2023-11-21T10:52:29;95777.81;;;14.96;52.93
8253;BME280;61313;48.396;10.008;2023-11-21T10:54:55;95773.00;;;15.14;52.67
8253;BME280;61313;48.396;10.008;2023-11-21T10:57:21;95780.53;;;15.07;52.27
8253;BME280;61313;48.396;10.008;2023-11-21T10:59:48;95773.44;;;15.08;51.69
8253;BME280;61313;48.396;10.008;2023-11-21T11:04:47;95779.56;;;14.58;52.67
8253;BME280;61313;48.396;10.008;2023-11-21T11:07:14;95776.34;;;14.40;52.69
8253;BME280;61313;48.396;10.008;2023-11-21T11:09:41;95776.91;;;14.33;53.27
8253;BME280;61313;48.396;10.008;2023-11-21T11:12:08;95772.78;;;14.54;51.82
8253;BME280;61313;48.396;10.008;2023-11-21T11:14:35;95762.09;;;14.69;51.24
8253;BME280;61313;48.396;10.008;2023-11-21T11:17:01;95770.91;;;14.56;52.06
8253;BME280;61313;48.396;10.008;2023-11-21T11:19:29;95769.19;;;14.68;51.91
8253;BME280;61313;48.396;10.008;2023-11-21T11:22:19;95773.22;;;14.48;52.30
8253;BME280;61313;48.396;10.008;2023-11-21T11:30:10;95768.50;;;13.35;54.94
8253;BME280;61313;48.396;10.008;2023-11-21T11:37:58;95754.03;;;13.68;53.66
8253;BME280;61313;48.396;10.008;2023-11-21T11:40:38;95760.50;;;13.89;53.36
8253;BME280;61313;48.396;10.008;2023-11-21T11:43:05;95767.00;;;13.71;53.07
8253;BME280;61313;48.396;10.008;2023-11-21T11:45:33;95761.91;;;13.55;53.60
8253;BME280;61313;48.396;10.008;2023-11-21T11:48:00;95767.31;;;13.39;53.71
8253;BME280;61313;48.396;10.008;2023-11-21T11:50:25;95773.88;;;13.19;54.41
8253;BME280;61313;48.396;10.008;2023-11-21T11:52:55;95774.63;;;13.21;54.31
8253;BME280;61313;48.396;10.008;2023-11-21T11:55:36;95775.41;;;13.09;54.84
8253;BME280;61313;48.396;10.008;2023-11-21T11:58:05;95775.81;;;12.88;56.27
8253;BME280;61313;48.396;10.008;2023-11-21T12:00:34;95781.72;;;12.92;56.73
8253;BME280;61313;48.396;10.008;2023-11-21T12:03:03;95786.47;;;12.44;56.98
8253;BME280;61313;48.396;10.008;2023-11-21T12:05:31;95782.63;;;11.60;60.21
8253;BME280;61313;48.396;10.008;2023-11-21T12:08:09;95787.44;;;11.68;60.81
8253;BME280;61313;48.396;10.008;2023-11-21T12:10:37;95788.13;;;11.72;61.24
8253;BME280;61313;48.396;10.008;2023-11-21T12:13:07;95788.44;;;11.81;61.96
8253;BME280;61313;48.396;10.008;2023-11-21T12:15:33;95793.03;;;12.08;60.74
8253;BME280;61313;48.396;10.008;2023-11-21T12:18:00;95792.91;;;11.95;61.27
8253;BME280;61313;48.396;10.008;2023-11-21T12:20:26;95792.28;;;12.20;59.92
8253;BME280;61313;48.396;10.008;2023-11-21T12:22:54;95785.44;;;11.88;60.78
8253;BME280;61313;48.396;10.008;2023-11-21T12:25:22;95789.91;;;12.01;60.53
8253;BME280;61313;48.396;10.008;2023-11-21T12:27:50;95785.31;;;12.05;60.77
8253;BME280;61313;48.396;10.008;2023-11-21T12:30:17;95792.72;;;11.98;61.32
8253;BME280;61313;48.396;10.008;2023-11-21T12:32:43;95790.19;;;11.81;62.82
8253;BME280;61313;48.396;10.008;2023-11-21T12:35:11;95787.44;;;11.68;63.42
8253;BME280;61313;48.396;10.008;2023-11-21T12:37:41;95790.38;;;11.78;63.47
8253;BME280;61313;48.396;10.008;2023-11-21T12:40:09;95795.28;;;11.54;65.41
8253;BME280;61313;48.396;10.008;2023-11-21T12:42:39;95799.13;;;11.16;65.92
8253;BME280;61313;48.396;10.008;2023-11-21T12:47:43;95793.50;;;11.38;64.28
8253;BME280;61313;48.396;10.008;2023-11-21T12:50:10;95806.03;;;11.49;63.32
8253;BME280;61313;48.396;10.008;2023-11-21T12:52:45;95806.38;;;11.59;62.76
8253;BME280;61313;48.396;10.008;2023-11-21T12:55:17;95805.16;;;11.64;62.69
8253;BME280;61313;48.396;10.008;2023-11-21T12:57:56;95803.47;;;11.63;63.91
8253;BME280;61313;48.396;10.008;2023-11-21T13:00:33;95814.44;;;11.56;63.45
8253;BME280;61313;48.396;10.008;2023-11-21T13:03:03;95810.59;;;11.61;64.09
8253;BME280;61313;48.396;10.008;2023-11-21T13:05:31;95807.88;;;11.63;63.43
8253;BME280;61313;48.396;10.008;2023-11-21T13:07:58;95816.63;;;11.63;63.07
8253;BME280;61313;48.396;10.008;2023-11-21T13:10:26;95817.75;;;11.74;62.77
8253;BME280;61313;48.396;10.008;2023-11-21T13:12:59;95820.28;;;11.45;63.79
8253;BME280;61313;48.396;10.008;2023-11-21T13:15:26;95811.81;;;11.40;63.39
8253;BME280;61313;48.396;10.008;2023-11-21T13:17:52;95818.75;;;11.57;63.58
8253;BME280;61313;48.396;10.008;2023-11-21T13:20:19;95820.09;;;11.64;63.99